createdAt,value
2023-03-29T00:00:31.313Z,72.90
2023-03-29T00:02:59.285Z,72.80
2023-03-29T00:05:26.755Z,73.00
2023-03-29T00:07:54.471Z,72.90
2023-03-29T00:10:23.971Z,72.80
2023-03-29T00:12:52.526Z,73.10
2023-03-29T00:15:20.451Z,73.20
2023-03-29T00:17:47.781Z,73.30
2023-03-29T00:20:15.339Z,73.30
2023-03-29T00:22:43.482Z,73.40
2023-03-29T00:25:11.966Z,73.20
2023-03-29T00:27:39.719Z,73.30
2023-03-29T00:30:08.917Z,73.40
2023-03-29T00:32:37.421Z,73.30
2023-03-29T00:35:06.134Z,73.50
2023-03-29T00:37:33.668Z,73.60
2023-03-29T00:40:01.155Z,73.50
2023-03-29T00:42:28.923Z,73.60
2023-03-29T00:45:10.241Z,73.70
2023-03-29T00:47:45.494Z,73.60
2023-03-29T00:50:26.337Z,73.70
2023-03-29T00:53:01.688Z,73.60
2023-03-29T00:55:38.622Z,73.40
2023-03-29T00:58:09.942Z,73.50
2023-03-29T01:00:41.905Z,73.40
2023-03-29T01:03:24.572Z,73.10
2023-03-29T01:06:00.088Z,72.50
2023-03-29T01:08:32.656Z,72.40
2023-03-29T01:11:08.509Z,72.20
2023-03-29T01:13:41.348Z,72.20
2023-03-29T01:16:11.553Z,72.10
2023-03-29T01:18:39.687Z,72.20
2023-03-29T01:21:23.491Z,72.40
2023-03-29T01:23:51.126Z,72.30
2023-03-29T01:26:24.966Z,72.20
2023-03-29T01:29:23.555Z,72.60
2023-03-29T01:31:56.920Z,72.70
2023-03-29T01:34:41.022Z,72.60
2023-03-29T01:37:26.552Z,72.60
2023-03-29T01:39:54.132Z,72.70
2023-03-29T01:42:54.260Z,73.00
2023-03-29T01:45:27.501Z,72.70
2023-03-29T01:48:09.956Z,72.70
2023-03-29T01:51:14.977Z,72.80
2023-03-29T01:53:54.925Z,72.90
2023-03-29T01:56:25.957Z,73.10
2023-03-29T01:59:00.999Z,73.40
2023-03-29T02:01:34.365Z,73.70
2023-03-29T02:04:06.257Z,73.90
2023-03-29T02:06:35.999Z,73.80
2023-03-29T02:09:05.023Z,73.90
2023-03-29T02:11:33.431Z,74.00
2023-03-29T02:14:02.287Z,74.10
2023-03-29T02:16:34.586Z,74.30
2023-03-29T02:19:02.721Z,74.30
2023-03-29T02:21:39.486Z,74.30
2023-03-29T02:24:11.242Z,74.10
2023-03-29T02:26:39.827Z,74.20
2023-03-29T02:29:07.269Z,74.10
2023-03-29T02:31:55.479Z,74.00
2023-03-29T02:34:30.096Z,73.90
2023-03-29T02:37:02.028Z,73.80
2023-03-29T02:39:33.637Z,73.80
2023-03-29T02:42:02.673Z,73.60
2023-03-29T02:44:33.163Z,73.60
2023-03-29T02:47:06.570Z,73.70
2023-03-29T02:49:37.271Z,73.70
2023-03-29T02:52:10.895Z,73.80
2023-03-29T02:54:43.006Z,74.00
2023-03-29T02:57:10.701Z,74.10
2023-03-29T02:59:39.090Z,74.20
2023-03-29T03:02:06.836Z,74.40
2023-03-29T03:04:35.543Z,74.60
2023-03-29T03:07:05.070Z,74.60
2023-03-29T03:09:32.629Z,74.60
2023-03-29T03:11:59.988Z,74.60
2023-03-29T03:14:28.214Z,74.60
2023-03-29T03:16:58.046Z,74.20
2023-03-29T03:19:25.833Z,74.10
2023-03-29T03:21:53.041Z,73.90
2023-03-29T03:24:21.911Z,73.50
2023-03-29T03:26:50.001Z,73.40
2023-03-29T03:29:19.286Z,73.10
2023-03-29T03:32:05.530Z,73.20
2023-03-29T03:34:58.884Z,73.10
2023-03-29T03:37:27.670Z,72.70
2023-03-29T03:39:55.281Z,72.50
2023-03-29T03:42:23.662Z,72.60
2023-03-29T03:44:50.826Z,72.30
2023-03-29T03:47:39.669Z,72.00
2023-03-29T03:50:19.875Z,72.20
2023-03-29T03:52:47.289Z,72.60
2023-03-29T03:55:16.333Z,72.50
2023-03-29T03:57:48.520Z,72.50
2023-03-29T04:00:19.674Z,72.70
2023-03-29T04:02:56.929Z,73.00
2023-03-29T04:05:24.678Z,73.20
2023-03-29T04:07:52.554Z,73.30
2023-03-29T04:10:29.515Z,73.60
2023-03-29T04:13:10.012Z,73.40
2023-03-29T04:16:00.139Z,73.50
2023-03-29T04:18:29.059Z,73.60
2023-03-29T04:20:59.032Z,73.60
2023-03-29T04:23:27.736Z,73.80
2023-03-29T04:25:56.546Z,73.80
2023-03-29T04:28:44.062Z,73.60
2023-03-29T04:31:26.127Z,73.90
2023-03-29T04:34:11.950Z,73.90
2023-03-29T04:36:39.672Z,74.10
2023-03-29T04:39:14.446Z,74.10
2023-03-29T04:41:43.448Z,74.20
2023-03-29T04:44:19.468Z,74.10
2023-03-29T04:46:46.743Z,74.40
2023-03-29T04:49:33.649Z,74.60
2023-03-29T04:52:00.966Z,74.60
2023-03-29T04:54:30.823Z,74.80
2023-03-29T04:57:08.755Z,74.70
2023-03-29T04:59:53.871Z,74.90
2023-03-29T05:02:45.283Z,75.30
2023-03-29T05:05:14.251Z,75.40
2023-03-29T05:07:42.104Z,75.40
2023-03-29T05:10:11.421Z,75.60
2023-03-29T05:12:38.822Z,75.60
2023-03-29T05:15:08.129Z,76.30
2023-03-29T05:17:36.820Z,76.20
2023-03-29T05:20:10.139Z,76.40
2023-03-29T05:22:38.324Z,76.50
2023-03-29T05:25:09.220Z,76.60
2023-03-29T05:27:37.030Z,76.60
2023-03-29T05:30:09.989Z,76.60
2023-03-29T05:32:48.535Z,76.50
2023-03-29T05:35:19.015Z,76.70
2023-03-29T05:37:47.276Z,76.70
2023-03-29T05:40:14.634Z,76.90
2023-03-29T05:43:09.125Z,77.10
2023-03-29T05:45:36.428Z,77.10
2023-03-29T05:48:04.063Z,77.30
2023-03-29T05:50:31.913Z,77.00
2023-03-29T05:52:59.818Z,77.30
2023-03-29T05:55:27.075Z,77.10
2023-03-29T05:57:54.510Z,76.90
2023-03-29T06:00:26.721Z,77.00
2023-03-29T06:03:14.031Z,77.00
2023-03-29T06:05:49.855Z,77.10
2023-03-29T06:08:17.351Z,77.30
2023-03-29T06:11:10.766Z,77.10
2023-03-29T06:13:57.407Z,77.00
2023-03-29T06:16:25.835Z,76.90
2023-03-29T06:18:53.295Z,77.00
2023-03-29T06:21:20.796Z,77.30
2023-03-29T06:23:48.062Z,77.70
2023-03-29T06:26:17.823Z,77.70
2023-03-29T06:28:45.196Z,77.80
2023-03-29T06:31:13.089Z,78.10
2023-03-29T06:33:43.133Z,78.00
2023-03-29T06:36:34.931Z,78.40
2023-03-29T06:39:08.501Z,78.80
2023-03-29T06:41:44.581Z,78.50
2023-03-29T06:44:25.547Z,78.50
2023-03-29T06:47:00.238Z,78.60
2023-03-29T06:49:28.197Z,78.80
2023-03-29T06:52:16.277Z,78.80
2023-03-29T06:54:45.435Z,78.90
2023-03-29T06:57:13.321Z,78.90
2023-03-29T06:59:40.622Z,79.10
2023-03-29T07:02:13.850Z,78.90
2023-03-29T07:04:52.594Z,78.70
2023-03-29T07:07:27.563Z,78.60
2023-03-29T07:10:10.098Z,78.60
2023-03-29T07:12:57.274Z,78.80
2023-03-29T07:15:25.030Z,78.40
2023-03-29T07:18:06.645Z,78.20
2023-03-29T07:20:34.071Z,78.40
2023-03-29T07:23:06.862Z,78.20
2023-03-29T07:25:34.257Z,77.90
2023-03-29T07:28:01.637Z,77.90
2023-03-29T07:30:32.135Z,77.90
2023-03-29T07:33:12.215Z,77.30
2023-03-29T07:35:47.831Z,77.50
2023-03-29T07:38:15.592Z,77.70
2023-03-29T07:40:48.032Z,77.40
2023-03-29T07:43:35.479Z,77.50
2023-03-29T07:46:05.365Z,77.20
2023-03-29T07:48:36.801Z,77.50
2023-03-29T07:51:08.164Z,77.10
2023-03-29T07:53:46.004Z,76.60
2023-03-29T07:56:30.428Z,76.80
2023-03-29T07:59:16.490Z,76.50
2023-03-29T08:01:46.010Z,76.30
2023-03-29T08:04:33.454Z,75.60
2023-03-29T08:07:24.363Z,76.30
2023-03-29T08:09:54.417Z,76.00
2023-03-29T08:12:31.118Z,76.60
2023-03-29T08:14:59.422Z,76.80
2023-03-29T08:17:32.553Z,77.00
2023-03-29T08:20:03.051Z,76.40
2023-03-29T08:22:31.961Z,75.40
2023-03-29T08:25:23.639Z,74.80
2023-03-29T08:27:54.094Z,75.30
2023-03-29T08:30:36.207Z,74.40
2023-03-29T08:33:04.432Z,72.90
2023-03-29T08:35:32.177Z,73.00
2023-03-29T08:38:21.748Z,73.50
2023-03-29T08:40:50.198Z,72.70
2023-03-29T08:43:23.886Z,72.40
2023-03-29T08:46:35.769Z,72.60
2023-03-29T08:49:30.677Z,71.20
2023-03-29T08:52:03.283Z,71.40
2023-03-29T08:54:55.878Z,72.00
2023-03-29T08:57:51.633Z,71.70
2023-03-29T09:01:05.975Z,70.40
2023-03-29T09:04:05.784Z,70.40
2023-03-29T09:06:47.444Z,68.50
2023-03-29T09:09:22.504Z,69.10
2023-03-29T09:12:26.308Z,69.40
2023-03-29T09:15:24.082Z,68.90
2023-03-29T09:18:30.236Z,70.00
2023-03-29T09:21:16.937Z,70.00
2023-03-29T09:23:55.993Z,69.90
2023-03-29T09:26:47.697Z,69.90
2023-03-29T09:29:40.903Z,67.60
2023-03-29T09:32:40.160Z,68.70
2023-03-29T09:35:14.275Z,68.00
2023-03-29T09:37:42.532Z,68.00
2023-03-29T09:40:16.522Z,67.50
2023-03-29T09:43:08.685Z,68.20
2023-03-29T09:45:39.233Z,66.80
2023-03-29T09:48:13.854Z,65.80
2023-03-29T09:50:47.414Z,65.70
2023-03-29T09:53:16.154Z,65.30
2023-03-29T09:55:51.586Z,65.30
2023-03-29T09:58:44.089Z,65.30
2023-03-29T10:03:48.878Z,63.60
2023-03-29T10:06:19.211Z,64.20
2023-03-29T10:08:58.932Z,64.90
2023-03-29T10:11:47.675Z,64.20
2023-03-29T10:14:22.416Z,62.90
2023-03-29T10:16:56.918Z,63.10
2023-03-29T10:19:34.421Z,63.00
2023-03-29T10:22:06.076Z,63.00
2023-03-29T10:24:34.371Z,62.40
2023-03-29T10:27:04.075Z,61.00
2023-03-29T10:29:40.442Z,59.50
2023-03-29T10:32:32.303Z,60.20
2023-03-29T10:35:12.613Z,61.20
2023-03-29T10:37:43.453Z,60.70
2023-03-29T10:40:26.197Z,61.80
2023-03-29T10:42:57.748Z,61.40
2023-03-29T10:45:33.875Z,61.30
2023-03-29T10:48:06.798Z,62.40
2023-03-29T10:50:37.969Z,61.50
2023-03-29T10:53:32.885Z,61.70
2023-03-29T10:56:23.004Z,59.80
2023-03-29T10:59:21.866Z,59.60
2023-03-29T11:01:52.052Z,60.00
2023-03-29T11:04:43.880Z,59.80
2023-03-29T11:07:32.287Z,59.80
2023-03-29T11:10:25.902Z,59.10
2023-03-29T11:13:09.128Z,59.50
2023-03-29T11:16:04.731Z,57.70
2023-03-29T11:18:55.266Z,58.90
2023-03-29T11:21:53.837Z,58.70
2023-03-29T11:24:37.115Z,57.50
2023-03-29T11:27:30.370Z,57.50
2023-03-29T11:30:02.567Z,58.50
2023-03-29T11:32:48.445Z,57.60
2023-03-29T11:35:48.285Z,58.40
2023-03-29T11:38:34.690Z,59.00
2023-03-29T11:41:11.984Z,58.50
2023-03-29T11:43:53.237Z,59.30
2023-03-29T11:46:35.531Z,59.60
2023-03-29T11:49:25.119Z,58.80
2023-03-29T11:51:58.924Z,56.20
2023-03-29T11:54:34.425Z,57.20
2023-03-29T11:57:11.270Z,55.20
2023-03-29T11:59:50.040Z,56.50
2023-03-29T12:02:36.708Z,56.40
2023-03-29T12:05:18.175Z,57.20
2023-03-29T12:08:07.103Z,54.00
2023-03-29T12:10:38.886Z,55.70
2023-03-29T12:13:28.815Z,54.00
2023-03-29T12:16:18.052Z,54.90
2023-03-29T12:18:48.465Z,55.00
2023-03-29T12:21:20.616Z,55.50
2023-03-29T12:23:48.769Z,55.60
2023-03-29T12:26:46.418Z,56.50
2023-03-29T12:29:52.479Z,57.30
2023-03-29T12:32:40.345Z,57.60
2023-03-29T12:35:52.817Z,58.30
2023-03-29T12:38:39.564Z,57.00
2023-03-29T12:41:25.328Z,58.00
2023-03-29T12:44:14.517Z,58.50
2023-03-29T12:47:01.964Z,58.70
2023-03-29T12:49:35.129Z,57.60
2023-03-29T12:52:08.254Z,58.60
2023-03-29T12:54:35.565Z,57.00
2023-03-29T12:57:21.330Z,57.60
2023-03-29T12:59:50.643Z,55.50
2023-03-29T13:02:17.979Z,54.60
2023-03-29T13:04:53.951Z,55.00
2023-03-29T13:07:26.371Z,54.80
2023-03-29T13:09:58.438Z,55.50
2023-03-29T13:12:42.177Z,55.80
2023-03-29T13:15:19.296Z,55.40
2023-03-29T13:17:58.940Z,57.50
2023-03-29T13:21:00.650Z,56.90
2023-03-29T13:23:27.796Z,57.90
2023-03-29T13:26:18.965Z,54.90
2023-03-29T13:29:08.007Z,54.60
2023-03-29T13:31:51.826Z,55.60
2023-03-29T13:34:31.042Z,56.70
2023-03-29T13:37:22.972Z,57.80
2023-03-29T13:39:52.981Z,59.70
2023-03-29T13:42:41.761Z,59.10
2023-03-29T13:45:25.041Z,58.20
2023-03-29T13:48:06.501Z,59.30
2023-03-29T13:50:39.774Z,59.30
2023-03-29T13:53:14.998Z,59.80
2023-03-29T13:55:48.253Z,58.70
2023-03-29T13:58:35.888Z,58.50
2023-03-29T14:01:29.197Z,58.30
2023-03-29T14:03:57.637Z,58.30
2023-03-29T14:06:34.742Z,58.50
2023-03-29T14:09:07.179Z,58.60
2023-03-29T14:11:35.228Z,57.90
2023-03-29T14:14:05.242Z,57.00
2023-03-29T14:16:37.167Z,58.40
2023-03-29T14:19:14.573Z,57.40
2023-03-29T14:21:42.752Z,57.00
2023-03-29T14:24:12.826Z,55.60
2023-03-29T14:26:45.950Z,55.80
2023-03-29T14:29:13.662Z,55.10
2023-03-29T14:31:44.875Z,54.90
2023-03-29T14:34:15.097Z,54.50
2023-03-29T14:36:45.540Z,54.50
2023-03-29T14:39:22.025Z,53.70
2023-03-29T14:41:59.799Z,52.40
2023-03-29T14:44:33.011Z,52.40
2023-03-29T14:47:01.764Z,53.60
2023-03-29T14:49:29.633Z,54.00
2023-03-29T14:51:57.186Z,52.60
2023-03-29T14:54:32.592Z,54.40
2023-03-29T14:57:03.484Z,55.10
2023-03-29T14:59:40.800Z,55.10
2023-03-29T15:02:26.487Z,56.60
2023-03-29T15:05:03.449Z,56.10
2023-03-29T15:07:33.476Z,56.80
2023-03-29T15:10:03.017Z,58.70
2023-03-29T15:12:31.657Z,58.80
2023-03-29T15:15:00.392Z,60.10
2023-03-29T15:17:49.345Z,59.70
2023-03-29T15:20:25.699Z,58.40
2023-03-29T15:23:04.585Z,58.90
2023-03-29T15:25:37.706Z,59.40
2023-03-29T15:28:05.497Z,60.10
2023-03-29T15:30:37.984Z,60.00
2023-03-29T15:33:19.150Z,60.50
2023-03-29T15:35:49.002Z,60.50
2023-03-29T15:38:16.320Z,61.40
2023-03-29T15:40:43.706Z,62.80
2023-03-29T15:43:11.295Z,63.90
2023-03-29T15:45:38.662Z,64.40
2023-03-29T15:48:17.773Z,64.70
2023-03-29T15:50:45.482Z,63.80
2023-03-29T15:53:15.654Z,64.60
2023-03-29T15:55:45.848Z,66.30
2023-03-29T15:58:19.143Z,67.50
2023-03-29T16:00:52.019Z,68.90
2023-03-29T16:03:19.351Z,70.20
2023-03-29T16:05:46.794Z,71.70
2023-03-29T16:08:14.210Z,72.90
2023-03-29T16:10:43.789Z,73.90
2023-03-29T16:13:14.458Z,75.50
2023-03-29T16:15:43.088Z,77.10
2023-03-29T16:18:10.614Z,78.20
2023-03-29T16:20:38.307Z,79.50
2023-03-29T16:23:09.722Z,79.90
2023-03-29T16:25:39.806Z,80.40
2023-03-29T16:28:08.962Z,80.60
2023-03-29T16:30:37.253Z,81.10
2023-03-29T16:33:08.146Z,81.80
2023-03-29T16:35:38.165Z,82.20
2023-03-29T16:38:06.588Z,82.60
2023-03-29T16:40:34.473Z,83.20
2023-03-29T16:43:05.841Z,83.60
2023-03-29T16:45:33.132Z,84.30
2023-03-29T16:48:00.392Z,84.90
2023-03-29T16:50:27.770Z,85.10
2023-03-29T16:52:55.217Z,85.30
2023-03-29T16:55:22.460Z,85.60
2023-03-29T16:57:50.933Z,85.70
2023-03-29T17:00:19.909Z,86.10
2023-03-29T17:02:50.489Z,86.10
2023-03-29T17:05:18.839Z,86.00
2023-03-29T17:07:46.801Z,85.50
2023-03-29T17:10:15.056Z,85.60
2023-03-29T17:12:42.379Z,85.50
2023-03-29T17:15:10.005Z,85.30
2023-03-29T17:17:37.807Z,85.20
2023-03-29T17:20:08.546Z,85.40
2023-03-29T17:22:35.941Z,85.00
2023-03-29T17:25:06.229Z,85.20
2023-03-29T17:27:37.920Z,85.20
2023-03-29T17:30:06.934Z,84.90
2023-03-29T17:32:36.481Z,84.50
2023-03-29T17:35:03.886Z,83.80
2023-03-29T17:37:31.134Z,83.40
2023-03-29T17:39:58.319Z,82.80
2023-03-29T17:42:25.607Z,82.60
2023-03-29T17:44:52.851Z,82.90
2023-03-29T17:47:20.083Z,82.80
2023-03-29T17:49:47.385Z,82.90
2023-03-29T17:52:14.623Z,82.50
2023-03-29T17:54:41.837Z,82.50
2023-03-29T17:57:09.134Z,82.40
2023-03-29T17:59:37.825Z,82.30
2023-03-29T18:02:05.896Z,82.20
2023-03-29T18:04:34.092Z,82.40
2023-03-29T18:07:01.343Z,82.50
2023-03-29T18:09:30.781Z,82.70
2023-03-29T18:11:58.762Z,83.10
2023-03-29T18:14:26.104Z,83.50
2023-03-29T18:16:53.540Z,83.60
2023-03-29T18:19:20.883Z,83.90
2023-03-29T18:21:48.312Z,84.10
2023-03-29T18:24:15.726Z,83.90
2023-03-29T18:26:42.974Z,84.30
2023-03-29T18:29:10.170Z,84.40
2023-03-29T18:31:37.498Z,84.30
2023-03-29T18:34:04.810Z,84.50
2023-03-29T18:36:32.261Z,84.40
2023-03-29T18:39:05.504Z,84.40
2023-03-29T18:41:35.568Z,84.30
2023-03-29T18:44:03.491Z,84.00
2023-03-29T18:46:31.867Z,83.80
2023-03-29T18:49:01.425Z,83.90
2023-03-29T18:51:29.380Z,83.90
2023-03-29T18:53:56.755Z,83.60
2023-03-29T18:56:24.055Z,83.70
2023-03-29T18:58:51.761Z,83.80
2023-03-29T19:01:19.068Z,83.70
2023-03-29T19:03:46.995Z,83.60
2023-03-29T19:06:15.177Z,83.40
2023-03-29T19:08:42.444Z,83.00
2023-03-29T19:11:14.120Z,82.90
2023-03-29T19:13:41.956Z,82.60
2023-03-29T19:16:09.490Z,82.50
2023-03-29T19:18:37.019Z,82.20
2023-03-29T19:21:04.369Z,81.90
2023-03-29T19:23:32.099Z,81.70
2023-03-29T19:26:02.533Z,81.50
2023-03-29T19:28:30.028Z,81.30
2023-03-29T19:30:59.183Z,80.90
2023-03-29T19:33:26.754Z,81.10
2023-03-29T19:35:54.016Z,80.90
2023-03-29T19:38:21.450Z,81.30
2023-03-29T19:40:51.546Z,81.20
2023-03-29T19:43:20.726Z,81.40
2023-03-29T19:45:50.136Z,82.10
2023-03-29T19:48:22.989Z,82.40
2023-03-29T19:50:51.360Z,82.30
2023-03-29T19:53:18.672Z,82.10
2023-03-29T19:55:45.957Z,81.90
2023-03-29T19:58:13.280Z,81.80
2023-03-29T20:00:41.579Z,81.60
2023-03-29T20:03:09.895Z,82.30
2023-03-29T20:05:38.772Z,82.80
2023-03-29T20:08:07.177Z,83.30
2023-03-29T20:10:35.949Z,83.70
2023-03-29T20:13:03.569Z,83.80
2023-03-29T20:15:31.001Z,84.00
2023-03-29T20:18:00.235Z,83.90
2023-03-29T20:20:28.467Z,84.10
2023-03-29T20:23:04.757Z,84.20
2023-03-29T20:25:36.057Z,84.00
2023-03-29T20:28:04.722Z,83.80
2023-03-29T20:30:32.549Z,83.60
2023-03-29T20:32:59.762Z,83.50
2023-03-29T20:35:27.142Z,83.30
2023-03-29T20:37:54.406Z,83.20
2023-03-29T20:40:21.682Z,83.10
2023-03-29T20:42:49.046Z,83.00
2023-03-29T20:45:19.493Z,83.00
2023-03-29T20:47:57.370Z,82.90
2023-03-29T20:50:26.385Z,82.60
2023-03-29T20:52:54.629Z,82.40
2023-03-29T20:55:23.415Z,82.40
2023-03-29T20:57:54.082Z,82.60
2023-03-29T21:00:22.363Z,83.00
2023-03-29T21:02:49.673Z,83.30
2023-03-29T21:05:17.075Z,83.40
2023-03-29T21:07:45.068Z,83.50
2023-03-29T21:10:12.462Z,83.60
2023-03-29T21:12:40.133Z,83.60
2023-03-29T21:15:09.406Z,83.90
2023-03-29T21:17:37.231Z,84.10
2023-03-29T21:20:10.921Z,83.90
2023-03-29T21:22:42.946Z,83.70
2023-03-29T21:25:14.526Z,83.60
2023-03-29T21:27:42.651Z,83.70
2023-03-29T21:30:10.897Z,83.70
2023-03-29T21:32:38.266Z,83.70
2023-03-29T21:35:06.743Z,83.70
2023-03-29T21:37:33.974Z,83.80
2023-03-29T21:40:05.487Z,83.80
2023-03-29T21:42:42.243Z,83.80
2023-03-29T21:45:10.353Z,84.10
2023-03-29T21:47:37.598Z,84.20
2023-03-29T21:50:05.407Z,84.30
2023-03-29T21:52:32.674Z,84.30
2023-03-29T21:54:59.886Z,84.50
2023-03-29T21:57:27.102Z,84.50
2023-03-29T21:59:54.343Z,84.40
2023-03-29T22:02:21.860Z,84.40
2023-03-29T22:04:49.160Z,84.50
2023-03-29T22:07:17.090Z,84.70
2023-03-29T22:09:44.629Z,84.80
2023-03-29T22:12:12.591Z,85.10
2023-03-29T22:14:39.783Z,85.20
2023-03-29T22:17:07.069Z,85.50
2023-03-29T22:19:38.844Z,85.60
2023-03-29T22:22:13.400Z,85.30
2023-03-29T22:24:41.911Z,85.30
2023-03-29T22:27:11.082Z,85.10
2023-03-29T22:29:38.228Z,85.10
2023-03-29T22:32:05.806Z,84.90
2023-03-29T22:34:33.344Z,84.50
2023-03-29T22:37:00.589Z,85.00
2023-03-29T22:39:28.522Z,85.20
2023-03-29T22:41:55.902Z,85.30
2023-03-29T22:44:23.098Z,85.70
2023-03-29T22:46:50.798Z,85.60
2023-03-29T22:49:18.008Z,85.30
2023-03-29T22:51:45.356Z,85.40
2023-03-29T22:54:12.596Z,85.20
2023-03-29T22:56:39.888Z,85.40
2023-03-29T22:59:07.183Z,85.30
2023-03-29T23:01:34.412Z,85.40
2023-03-29T23:04:01.795Z,85.50
2023-03-29T23:06:29.096Z,85.90
2023-03-29T23:08:56.332Z,85.80
2023-03-29T23:11:23.561Z,85.90
2023-03-29T23:13:50.848Z,85.80
2023-03-29T23:16:20.980Z,86.00
2023-03-29T23:18:48.654Z,86.00
2023-03-29T23:21:16.581Z,86.40
2023-03-29T23:23:44.675Z,86.50
2023-03-29T23:26:11.984Z,86.90
2023-03-29T23:28:40.913Z,86.40
2023-03-29T23:31:11.409Z,86.60
2023-03-29T23:33:41.230Z,86.70
2023-03-29T23:36:12.023Z,86.60
2023-03-29T23:38:40.035Z,86.90
2023-03-29T23:41:10.369Z,86.70
2023-03-29T23:43:40.575Z,86.70
2023-03-29T23:46:13.428Z,87.20
2023-03-29T23:48:44.907Z,87.30
2023-03-29T23:51:12.170Z,87.60
2023-03-29T23:53:39.843Z,87.90
2023-03-29T23:56:08.063Z,87.90
2023-03-29T23:58:37.430Z,87.70
